Fonthida Naree — HSJR — position and weather

sailwx.info

Track history (hours):
 
Tides and Currents Weather Stations Pressure Air Temp Water Temp Dewpoint Dewpoint Depression Visibility Wind Speed Wind Dir Waves Ship Positions

Fonthida Naree

Last reported at 2014-Nov-28 12:19 UTC. Time now 2014-Nov-29 03:20 UTC.
Position N 41°26' E 029°41'.

Length 170 m; draft 5.7 m.

Type: Cargo ship. MMSI: 567265000.

Date/timePositionNaut miles runAvg speedWind from/ knotsBaromVisibWave heightAir tempDewpointWater temp
2014-Nov-28 12:19N 41°26' E 029°41'1114.6
2014-Nov-28 11:33N 41°21' E 029°28'1414.1
2014-Nov-28 10:33N 41°15' E 029°11'18 9.1
2014-Nov-28 08:33N 40°59' E 028°60'10 9.1
2014-Nov-28 07:28N 40°51' E 028°52'1 1.5
2014-Nov-28 06:31N 40°50' E 028°52'5 5.3
2014-Nov-28 05:32N 40°49' E 028°45'26211.8
2014-Nov-27 07:15N 37°52' E 024°35'1112.8
2014-Nov-27 06:25N 37°42' E 024°31'1112.6
2014-Nov-27 05:33N 37°32' E 024°25'1312.7
2014-Nov-27 04:32N 37°23' E 024°13'4512.9
2014-Nov-27 01:05N 36°50' E 023°35'  
Track history (hours):
 
Tides and Currents Weather Stations Pressure Air Temp Water Temp Dewpoint Dewpoint Depression Visibility Wind Speed Wind Dir Waves Ship Positions

Fonthida Naree

Last reported at 2014-Nov-28 12:19 UTC. Time now 2014-Nov-29 03:20 UTC.
Position N 41°26' E 029°41'.

Length 170 m; draft 5.7 m.

Type: Cargo ship. MMSI: 567265000.

Date/timePositionNaut miles runAvg speedWind from/ knotsBaromVisibWave heightAir tempDewpointWater temp
2014-Nov-28 12:19N 41°26' E 029°41'1114.6
2014-Nov-28 11:33N 41°21' E 029°28'1414.1
2014-Nov-28 10:33N 41°15' E 029°11'18 9.1
2014-Nov-28 08:33N 40°59' E 028°60'10 9.1
2014-Nov-28 07:28N 40°51' E 028°52'1 1.5
2014-Nov-28 06:31N 40°50' E 028°52'5 5.3
2014-Nov-28 05:32N 40°49' E 028°45'26211.8
2014-Nov-27 07:15N 37°52' E 024°35'1112.8
2014-Nov-27 06:25N 37°42' E 024°31'1112.6
2014-Nov-27 05:33N 37°32' E 024°25'1312.7
2014-Nov-27 04:32N 37°23' E 024°13'4512.9
2014-Nov-27 01:05N 36°50' E 023°35'  

Dump ship's entire track history